createdAt,value
2018-12-15T00:02:11.273Z,99731.98
2018-12-15T00:04:37.501Z,99728.47
2018-12-15T00:07:03.762Z,99721.09
2018-12-15T00:09:29.913Z,99724.63
2018-12-15T00:11:56.185Z,99724.27
2018-12-15T00:14:22.325Z,99727.63
2018-12-15T00:16:48.470Z,99715.76
2018-12-15T00:19:14.653Z,99729.47
2018-12-15T00:21:40.890Z,99715.91
2018-12-15T00:24:07.037Z,99728.13
2018-12-15T00:26:33.379Z,99724.14
2018-12-15T00:28:59.590Z,99722.28
2018-12-15T00:31:25.835Z,99730.48
2018-12-15T00:33:52.077Z,99744.69
2018-12-15T00:36:18.193Z,99732.48
2018-12-15T00:38:44.501Z,99735.48
2018-12-15T00:41:10.661Z,99732.97
2018-12-15T00:43:36.801Z,99734.63
2018-12-15T00:46:02.982Z,99736.02
2018-12-15T00:48:29.226Z,99729.80
2018-12-15T00:50:55.435Z,99728.15
2018-12-15T00:53:21.681Z,99728.63
2018-12-15T00:55:47.837Z,99735.48
2018-12-15T00:58:14.429Z,99731.65
2018-12-15T01:00:41.151Z,99726.96
2018-12-15T01:03:07.329Z,99731.47
2018-12-15T01:05:33.492Z,99736.31
2018-12-15T01:07:59.653Z,99729.47
2018-12-15T01:10:25.825Z,99728.48
2018-12-15T01:12:52.117Z,99727.13
2018-12-15T01:15:20.446Z,99728.33
2018-12-15T01:17:46.649Z,99723.79
2018-12-15T01:20:12.794Z,99714.94
2018-12-15T01:22:39.078Z,99720.62
2018-12-15T01:25:05.307Z,99722.77
2018-12-15T01:27:31.500Z,99722.45
2018-12-15T01:29:57.673Z,99730.98
2018-12-15T01:32:24.181Z,99732.81
2018-12-15T01:34:50.314Z,99724.95
2018-12-15T01:37:16.472Z,99724.61
2018-12-15T01:39:42.879Z,99718.34
2018-12-15T01:42:09.073Z,99716.70
2018-12-15T01:44:35.332Z,99714.39
2018-12-15T01:47:01.561Z,99719.60
2018-12-15T01:49:27.760Z,99715.76
2018-12-15T01:51:54.016Z,99717.05
2018-12-15T01:54:20.468Z,99712.55
2018-12-15T01:56:46.676Z,99719.25
2018-12-15T01:59:12.870Z,99709.41
2018-12-15T02:01:39.132Z,99702.38
2018-12-15T02:04:05.359Z,99706.69
2018-12-15T02:06:31.557Z,99704.37
2018-12-15T02:08:57.787Z,99703.53
2018-12-15T02:11:23.938Z,99701.17
2018-12-15T02:13:50.072Z,99709.88
2018-12-15T02:16:16.296Z,99702.20
2018-12-15T02:18:42.438Z,99697.67
2018-12-15T02:21:08.748Z,99707.03
2018-12-15T02:23:34.978Z,99706.20
2018-12-15T02:26:01.124Z,99704.45
2018-12-15T02:28:27.432Z,99704.63
2018-12-15T02:30:53.584Z,99710.82
2018-12-15T02:33:19.733Z,99715.79
2018-12-15T02:35:46.104Z,99723.55
2018-12-15T02:38:12.304Z,99718.91
2018-12-15T02:40:38.427Z,99717.30
2018-12-15T02:43:04.570Z,99717.48
2018-12-15T02:45:31.198Z,99723.11
2018-12-15T02:47:57.463Z,99710.95
2018-12-15T02:50:23.596Z,99712.66
2018-12-15T02:52:49.915Z,99720.13
2018-12-15T02:55:16.057Z,99716.80
2018-12-15T02:57:42.335Z,99712.80
2018-12-15T03:00:08.565Z,99718.20
2018-12-15T03:02:34.829Z,99712.66
2018-12-15T03:05:00.973Z,99708.26
2018-12-15T03:07:27.282Z,99713.70
2018-12-15T03:09:53.713Z,99713.11
2018-12-15T03:12:19.944Z,99707.94
2018-12-15T03:14:46.172Z,99716.39
2018-12-15T03:17:12.333Z,99705.81
2018-12-15T03:19:38.477Z,99705.97
2018-12-15T03:22:04.824Z,99699.40
2018-12-15T03:24:31.049Z,99711.34
2018-12-15T03:26:57.212Z,99714.07
2018-12-15T03:29:23.538Z,99720.63
2018-12-15T03:31:49.729Z,99704.88
2018-12-15T03:34:16.110Z,99697.34
2018-12-15T03:36:42.281Z,99704.70
2018-12-15T03:39:08.530Z,99703.19
2018-12-15T03:41:34.757Z,99705.85
2018-12-15T03:44:00.994Z,99713.72
2018-12-15T03:46:27.246Z,99714.73
2018-12-15T03:48:53.377Z,99725.27
2018-12-15T03:51:19.571Z,99722.42
2018-12-15T03:53:45.719Z,99710.08
2018-12-15T03:56:11.922Z,99712.72
2018-12-15T03:58:38.158Z,99706.19
2018-12-15T04:01:04.337Z,99706.52
2018-12-15T04:03:30.605Z,99717.04
2018-12-15T04:05:56.770Z,99720.44
2018-12-15T04:08:23.062Z,99714.06
2018-12-15T04:10:49.292Z,99717.27
2018-12-15T04:13:22.472Z,99720.77
2018-12-15T04:15:48.711Z,99713.57
2018-12-15T04:18:14.966Z,99713.57
2018-12-15T04:20:41.195Z,99718.60
2018-12-15T04:23:07.338Z,99715.09
2018-12-15T04:25:33.484Z,99711.55
2018-12-15T04:27:59.667Z,99717.93
2018-12-15T04:30:25.873Z,99723.80
2018-12-15T04:32:52.129Z,99725.78
2018-12-15T04:35:18.295Z,99716.92
2018-12-15T04:37:44.549Z,99722.61
2018-12-15T04:40:11.037Z,99729.48
2018-12-15T04:42:37.204Z,99730.66
2018-12-15T04:45:04.171Z,99727.45
2018-12-15T04:47:30.693Z,99724.78
2018-12-15T04:49:56.951Z,99732.00
2018-12-15T04:52:23.180Z,99740.84
2018-12-15T04:54:49.345Z,99739.69
2018-12-15T04:57:15.574Z,99736.51
2018-12-15T04:59:41.829Z,99728.30
2018-12-15T05:02:08.093Z,99727.64
2018-12-15T05:04:34.283Z,99720.43
2018-12-15T05:07:00.411Z,99721.44
2018-12-15T05:09:26.552Z,99727.80
2018-12-15T05:11:52.716Z,99734.98
2018-12-15T05:14:18.992Z,99740.52
2018-12-15T05:16:45.126Z,99746.07
2018-12-15T05:19:11.448Z,99751.59
2018-12-15T05:21:37.707Z,99749.23
2018-12-15T05:24:03.833Z,99746.22
2018-12-15T05:26:30.128Z,99746.20
2018-12-15T05:28:56.368Z,99746.20
2018-12-15T05:31:22.492Z,99740.85
2018-12-15T05:33:48.658Z,99744.23
2018-12-15T05:36:14.813Z,99751.86
2018-12-15T05:38:41.067Z,99755.77
2018-12-15T05:41:07.264Z,99747.11
2018-12-15T05:43:33.390Z,99748.02
2018-12-15T05:45:59.541Z,99746.03
2018-12-15T05:48:25.705Z,99751.73
2018-12-15T05:50:52.031Z,99757.77
2018-12-15T05:53:18.226Z,99757.09
2018-12-15T05:55:44.409Z,99755.40
2018-12-15T05:58:10.715Z,99753.38
2018-12-15T06:00:37.100Z,99761.05
2018-12-15T06:03:03.375Z,99768.76
2018-12-15T06:05:29.649Z,99772.76
2018-12-15T06:07:55.831Z,99777.29
2018-12-15T06:10:22.029Z,99763.70
2018-12-15T06:12:48.287Z,99779.04
2018-12-15T06:15:14.432Z,99785.12
2018-12-15T06:17:40.604Z,99783.36
2018-12-15T06:20:13.697Z,99792.97
2018-12-15T06:22:39.920Z,99796.22
2018-12-15T06:25:06.126Z,99792.33
2018-12-15T06:27:32.377Z,99787.33
2018-12-15T06:29:58.611Z,99790.70
2018-12-15T06:32:24.792Z,99795.80
2018-12-15T06:34:50.949Z,99792.80
2018-12-15T06:37:17.110Z,99785.08
2018-12-15T06:39:43.281Z,99788.44
2018-12-15T06:42:09.458Z,99788.61
2018-12-15T06:44:35.768Z,99791.63
2018-12-15T06:47:01.946Z,99790.78
2018-12-15T06:49:28.659Z,99795.01
2018-12-15T06:51:54.895Z,99790.13
2018-12-15T06:54:21.122Z,99796.33
2018-12-15T06:56:47.268Z,99796.80
2018-12-15T06:59:13.552Z,99797.46
2018-12-15T07:01:39.754Z,99807.53
2018-12-15T07:04:05.889Z,99799.97
2018-12-15T07:06:32.051Z,99801.79
2018-12-15T07:08:58.206Z,99794.09
2018-12-15T07:11:24.372Z,99793.72
2018-12-15T07:13:50.740Z,99795.92
2018-12-15T07:16:16.902Z,99785.69
2018-12-15T07:18:45.010Z,99786.56
2018-12-15T07:21:11.373Z,99780.34
2018-12-15T07:23:37.553Z,99773.58
2018-12-15T07:26:03.894Z,99781.58
2018-12-15T07:28:30.127Z,99782.81
2018-12-15T07:30:56.297Z,99783.77
2018-12-15T07:33:22.609Z,99797.27
2018-12-15T07:35:48.837Z,99795.36
2018-12-15T07:38:14.994Z,99803.96
2018-12-15T07:40:41.293Z,99808.88
2018-12-15T07:43:07.481Z,99808.38
2018-12-15T07:45:33.716Z,99814.41
2018-12-15T07:47:59.976Z,99808.47
2018-12-15T07:50:26.146Z,99816.38
2018-12-15T07:52:52.314Z,99814.67
2018-12-15T07:55:18.624Z,99812.89
2018-12-15T07:57:44.886Z,99811.22
2018-12-15T08:00:11.318Z,99811.62
2018-12-15T08:02:37.499Z,99810.07
2018-12-15T08:05:04.501Z,99809.72
2018-12-15T08:07:30.792Z,99815.03
2018-12-15T08:09:58.977Z,99818.75
2018-12-15T08:12:31.271Z,99812.91
2018-12-15T08:14:57.495Z,99815.38
2018-12-15T08:17:23.647Z,99814.33
2018-12-15T08:19:49.921Z,99814.15
2018-12-15T08:22:16.073Z,99811.61
2018-12-15T08:24:42.373Z,99809.94
2018-12-15T08:27:08.602Z,99811.84
2018-12-15T08:29:34.766Z,99805.91
2018-12-15T08:32:00.910Z,99816.53
2018-12-15T08:34:27.101Z,99808.38
2018-12-15T08:36:53.253Z,99806.91
2018-12-15T08:39:19.533Z,99804.25
2018-12-15T08:41:45.709Z,99804.08
2018-12-15T08:44:12.023Z,99803.60
2018-12-15T08:46:38.219Z,99798.89
2018-12-15T08:49:04.717Z,99792.12
2018-12-15T08:51:31.916Z,99792.31
2018-12-15T08:53:58.105Z,99796.42
2018-12-15T08:56:24.282Z,99792.97
2018-12-15T08:58:50.427Z,99790.33
2018-12-15T09:01:16.581Z,99797.19
2018-12-15T09:03:42.746Z,99788.15
2018-12-15T09:06:09.095Z,99784.84
2018-12-15T09:08:35.323Z,99781.22
2018-12-15T09:11:01.485Z,99788.63
2018-12-15T09:13:27.781Z,99779.50
2018-12-15T09:15:53.976Z,99777.03
2018-12-15T09:18:20.142Z,99781.80
2018-12-15T09:20:46.462Z,99785.08
2018-12-15T09:23:12.690Z,99786.39
2018-12-15T09:25:38.849Z,99781.50
2018-12-15T09:28:05.145Z,99783.37
2018-12-15T09:30:31.303Z,99788.51
2018-12-15T09:32:57.601Z,99784.31
2018-12-15T09:35:23.827Z,99783.05
2018-12-15T09:37:49.997Z,99782.20
2018-12-15T09:40:16.186Z,99779.39
2018-12-15T09:42:42.305Z,99777.47
2018-12-15T09:45:08.535Z,99781.74
2018-12-15T09:47:34.721Z,99778.73
2018-12-15T09:50:00.990Z,99789.55
2018-12-15T09:52:27.218Z,99790.93
2018-12-15T09:54:53.373Z,99776.34
2018-12-15T09:57:19.492Z,99788.47
2018-12-15T09:59:45.636Z,99778.34
2018-12-15T10:02:11.813Z,99781.50
2018-12-15T10:04:38.026Z,99784.44
2018-12-15T10:07:04.325Z,99782.32
2018-12-15T10:09:30.517Z,99783.70
2018-12-15T10:11:56.722Z,99780.05
2018-12-15T10:14:22.848Z,99790.73
2018-12-15T10:16:49.041Z,99785.48
2018-12-15T10:19:15.450Z,99783.00
2018-12-15T10:21:41.615Z,99781.33
2018-12-15T10:24:07.789Z,99783.74
2018-12-15T10:26:33.941Z,99778.72
2018-12-15T10:29:00.093Z,99779.98
2018-12-15T10:31:32.301Z,99769.45
2018-12-15T10:33:58.434Z,99770.98
2018-12-15T10:36:24.600Z,99764.63
2018-12-15T10:38:50.870Z,99767.81
2018-12-15T10:41:17.070Z,99765.07
2018-12-15T10:43:43.326Z,99768.95
2018-12-15T10:46:09.568Z,99769.33
2018-12-15T10:48:35.701Z,99758.27
2018-12-15T10:51:01.877Z,99763.84
2018-12-15T10:53:28.052Z,99759.85
2018-12-15T10:55:54.211Z,99768.98
2018-12-15T10:58:20.368Z,99768.66
2018-12-15T11:00:52.536Z,99770.63
2018-12-15T11:03:18.686Z,99760.48
2018-12-15T11:05:44.829Z,99758.30
2018-12-15T11:08:11.049Z,99762.98
2018-12-15T11:10:37.197Z,99760.06
2018-12-15T11:13:03.368Z,99763.13
2018-12-15T11:15:29.558Z,99768.38
2018-12-15T11:17:55.697Z,99765.84
2018-12-15T11:20:21.864Z,99771.72
2018-12-15T11:22:48.028Z,99762.38
2018-12-15T11:25:14.173Z,99763.52
2018-12-15T11:27:40.305Z,99761.84
2018-12-15T11:30:06.745Z,99762.56
2018-12-15T11:32:32.900Z,99759.35
2018-12-15T11:34:59.057Z,99758.75
2018-12-15T11:37:25.258Z,99755.89
2018-12-15T11:39:51.416Z,99751.29
2018-12-15T11:42:17.573Z,99753.70
2018-12-15T11:44:43.742Z,99748.25
2018-12-15T11:47:09.861Z,99753.56
2018-12-15T11:49:35.998Z,99756.73
2018-12-15T11:52:02.197Z,99744.58
2018-12-15T11:54:28.355Z,99743.50
2018-12-15T11:56:54.564Z,99745.97
2018-12-15T11:59:20.725Z,99752.61
2018-12-15T12:01:46.870Z,99735.73
2018-12-15T12:04:13.013Z,99734.09
2018-12-15T12:06:39.180Z,99737.81
2018-12-15T12:09:05.348Z,99738.45
2018-12-15T12:11:31.693Z,99741.52
2018-12-15T12:14:00.483Z,99736.16
2018-12-15T12:16:26.175Z,99740.36
2018-12-15T12:18:52.427Z,99746.20
2018-12-15T12:21:18.594Z,99756.29
2018-12-15T12:23:44.914Z,99764.63
2018-12-15T12:26:11.077Z,99761.65
2018-12-15T12:28:37.368Z,99755.09
2018-12-15T12:31:03.519Z,99748.70
2018-12-15T12:33:29.661Z,99749.77
2018-12-15T12:35:55.907Z,99749.23
2018-12-15T12:38:22.249Z,99752.57
2018-12-15T12:40:48.400Z,99741.59
2018-12-15T12:43:14.606Z,99745.97
2018-12-15T12:45:40.762Z,99748.45
2018-12-15T12:48:07.025Z,99741.65
2018-12-15T12:50:33.198Z,99753.25
2018-12-15T12:52:59.341Z,99755.59
2018-12-15T12:55:25.477Z,99750.52
2018-12-15T12:57:51.641Z,99760.81
2018-12-15T13:00:17.781Z,99758.13
2018-12-15T13:02:43.930Z,99743.77
2018-12-15T13:05:10.217Z,99748.42
2018-12-15T13:07:36.399Z,99734.81
2018-12-15T13:10:03.404Z,99745.45
2018-12-15T13:12:29.605Z,99740.82
2018-12-15T13:14:55.774Z,99757.46
2018-12-15T13:17:22.026Z,99755.36
2018-12-15T13:19:48.238Z,99749.20
2018-12-15T13:22:14.370Z,99743.54
2018-12-15T13:24:40.528Z,99742.03
2018-12-15T13:27:06.741Z,99745.85
2018-12-15T13:29:32.882Z,99740.05
2018-12-15T13:31:59.025Z,99734.14
2018-12-15T13:34:25.242Z,99735.83
2018-12-15T13:36:51.394Z,99727.78
2018-12-15T13:39:17.541Z,99712.86
2018-12-15T13:41:43.744Z,99712.73
2018-12-15T13:44:09.890Z,99715.91
2018-12-15T13:46:36.021Z,99708.19
2018-12-15T13:49:02.249Z,99707.38
2018-12-15T13:51:28.408Z,99711.70
2018-12-15T13:53:54.561Z,99707.50
2018-12-15T13:56:20.742Z,99723.65
2018-12-15T13:58:47.021Z,99719.25
2018-12-15T14:01:13.153Z,99714.07
2018-12-15T14:03:39.335Z,99712.20
2018-12-15T14:06:05.474Z,99707.69
2018-12-15T14:08:31.601Z,99718.34
2018-12-15T14:10:57.790Z,99716.33
2018-12-15T14:13:23.949Z,99712.97
2018-12-15T14:15:50.338Z,99716.34
2018-12-15T14:18:16.646Z,99720.59
2018-12-15T14:20:42.793Z,99714.03
2018-12-15T14:23:09.142Z,99702.34
2018-12-15T14:25:35.342Z,99707.63
2018-12-15T14:28:01.472Z,99703.13
2018-12-15T14:30:28.510Z,99703.79
2018-12-15T14:32:54.709Z,99703.01
2018-12-15T14:35:20.857Z,99703.91
2018-12-15T14:37:47.292Z,99709.47
2018-12-15T14:40:13.462Z,99709.89
2018-12-15T14:42:39.621Z,99706.92
2018-12-15T14:45:06.030Z,99708.66
2018-12-15T14:47:32.194Z,99708.30
2018-12-15T14:49:58.348Z,99704.95
2018-12-15T14:52:25.538Z,99707.20
2018-12-15T14:54:51.710Z,99708.72
2018-12-15T14:57:19.893Z,99707.02
2018-12-15T14:59:46.025Z,99699.30
2018-12-15T15:02:12.223Z,99691.62
2018-12-15T15:04:38.448Z,99692.16
2018-12-15T15:07:04.617Z,99702.51
2018-12-15T15:09:30.797Z,99702.02
2018-12-15T15:11:56.948Z,99701.84
2018-12-15T15:14:23.085Z,99704.65
2018-12-15T15:16:49.253Z,99712.23
2018-12-15T15:19:15.376Z,99707.87
2018-12-15T15:21:41.516Z,99709.69
2018-12-15T15:24:07.787Z,99715.36
2018-12-15T15:26:35.069Z,99705.71
2018-12-15T15:29:01.458Z,99713.72
2018-12-15T15:31:27.627Z,99708.05
2018-12-15T15:33:53.770Z,99699.28
2018-12-15T15:36:19.921Z,99697.16
2018-12-15T15:38:46.104Z,99694.98
2018-12-15T15:41:12.269Z,99691.45
2018-12-15T15:43:38.416Z,99688.60
2018-12-15T15:46:04.616Z,99684.03
2018-12-15T15:48:30.779Z,99683.95
2018-12-15T15:50:56.952Z,99684.07
2018-12-15T15:53:30.130Z,99689.48
2018-12-15T15:55:56.321Z,99688.02
2018-12-15T15:58:22.513Z,99686.14
2018-12-15T16:00:49.020Z,99686.70
2018-12-15T16:03:15.450Z,99680.91
2018-12-15T16:05:41.680Z,99684.86
2018-12-15T16:08:08.113Z,99680.08
2018-12-15T16:10:34.764Z,99682.84
2018-12-15T16:13:01.165Z,99684.50
2018-12-15T16:15:27.341Z,99678.20
2018-12-15T16:17:53.840Z,99673.55
2018-12-15T16:20:20.312Z,99676.19
2018-12-15T16:22:46.706Z,99676.72
2018-12-15T16:25:12.935Z,99671.98
2018-12-15T16:27:39.162Z,99677.80
2018-12-15T16:30:07.238Z,99685.55
2018-12-15T16:32:33.461Z,99675.91
2018-12-15T16:34:59.636Z,99682.89
2018-12-15T16:37:25.805Z,99690.59
2018-12-15T16:39:52.122Z,99686.58
2018-12-15T16:42:18.281Z,99688.58
2018-12-15T16:44:44.457Z,99702.20
2018-12-15T16:47:10.608Z,99698.87
2018-12-15T16:49:36.853Z,99696.65
2018-12-15T16:52:10.185Z,99687.00
2018-12-15T16:54:36.330Z,99683.14
2018-12-15T16:57:02.501Z,99692.05
2018-12-15T16:59:28.954Z,99695.87
2018-12-15T17:01:55.346Z,99699.83
2018-12-15T17:04:22.032Z,99698.31
2018-12-15T17:06:48.671Z,99695.02
2018-12-15T17:09:15.307Z,99701.23
2018-12-15T17:11:41.708Z,99706.66
2018-12-15T17:14:07.864Z,99699.48
2018-12-15T17:16:34.150Z,99698.88
2018-12-15T17:19:01.053Z,99700.55
2018-12-15T17:21:27.817Z,99694.22
2018-12-15T17:23:53.957Z,99692.20
2018-12-15T17:26:20.098Z,99692.62
2018-12-15T17:28:46.264Z,99696.90
2018-12-15T17:31:12.436Z,99699.98
2018-12-15T17:33:38.605Z,99691.09
2018-12-15T17:36:05.011Z,99685.45
2018-12-15T17:38:31.401Z,99684.09
2018-12-15T17:40:57.637Z,99692.12
2018-12-15T17:43:23.875Z,99701.16
2018-12-15T17:45:50.025Z,99691.06
2018-12-15T17:48:16.429Z,99680.39
2018-12-15T17:50:42.605Z,99686.87
2018-12-15T17:53:09.016Z,99680.35
2018-12-15T17:55:35.209Z,99676.31
2018-12-15T17:58:01.383Z,99678.03
2018-12-15T18:00:27.665Z,99669.97
2018-12-15T18:02:53.845Z,99668.52
2018-12-15T18:05:20.154Z,99666.41
2018-12-15T18:07:46.754Z,99674.83
2018-12-15T18:10:13.194Z,99678.98
2018-12-15T18:12:39.421Z,99679.97
2018-12-15T18:15:06.045Z,99669.02
2018-12-15T18:17:32.276Z,99669.41
2018-12-15T18:19:58.544Z,99671.56
2018-12-15T18:22:24.772Z,99675.87
2018-12-15T18:24:50.945Z,99655.63
2018-12-15T18:27:17.227Z,99658.57
2018-12-15T18:29:43.455Z,99666.04
2018-12-15T18:32:09.683Z,99663.73
2018-12-15T18:34:35.914Z,99665.89
2018-12-15T18:37:02.105Z,99657.27
2018-12-15T18:39:28.371Z,99652.38
2018-12-15T18:41:54.580Z,99639.57
2018-12-15T18:46:57.085Z,99648.77
2018-12-15T18:49:23.314Z,99653.56
2018-12-15T18:51:49.541Z,99653.83
2018-12-15T18:54:16.558Z,99651.42
2018-12-15T18:56:43.021Z,99645.31
2018-12-15T18:59:09.636Z,99642.58
2018-12-15T19:01:35.881Z,99647.81
2018-12-15T19:04:02.284Z,99655.81
2018-12-15T19:06:28.447Z,99660.40
2018-12-15T19:08:54.746Z,99654.77
2018-12-15T19:11:20.901Z,99647.16
2018-12-15T19:13:47.197Z,99649.78
2018-12-15T19:16:13.425Z,99643.95
2018-12-15T19:18:39.613Z,99642.95
2018-12-15T19:21:05.881Z,99644.94
2018-12-15T19:23:32.086Z,99648.28
2018-12-15T19:25:58.270Z,99649.92
2018-12-15T19:28:24.560Z,99653.03
2018-12-15T19:30:50.745Z,99662.88
2018-12-15T19:33:16.905Z,99655.88
2018-12-15T19:35:43.249Z,99658.73
2018-12-15T19:38:09.418Z,99655.84
2018-12-15T19:40:35.737Z,99658.30
2018-12-15T19:43:01.866Z,99667.94
2018-12-15T19:45:28.052Z,99660.06
2018-12-15T19:47:54.214Z,99658.20
2018-12-15T19:50:20.412Z,99649.77
2018-12-15T19:52:46.670Z,99642.25
2018-12-15T19:55:12.821Z,99653.24
2018-12-15T19:57:39.097Z,99654.07
2018-12-15T20:00:07.366Z,99649.05
2018-12-15T20:02:33.833Z,99630.45
2018-12-15T20:04:59.986Z,99640.70
2018-12-15T20:07:26.279Z,99651.52
2018-12-15T20:09:52.930Z,99648.39
2018-12-15T20:12:19.154Z,99641.41
2018-12-15T20:14:45.357Z,99651.04
2018-12-15T20:17:11.578Z,99648.53
2018-12-15T20:19:37.806Z,99642.80
2018-12-15T20:22:04.033Z,99636.74
2018-12-15T20:24:30.186Z,99629.70
2018-12-15T20:26:56.321Z,99647.24
2018-12-15T20:29:22.749Z,99641.28
2018-12-15T20:31:48.884Z,99647.48
2018-12-15T20:34:15.177Z,99653.15
2018-12-15T20:36:41.364Z,99646.94
2018-12-15T20:39:07.494Z,99651.40
2018-12-15T20:41:33.710Z,99647.70
2018-12-15T20:44:00.116Z,99643.15
2018-12-15T20:46:26.257Z,99639.38
2018-12-15T20:48:52.409Z,99636.52
2018-12-15T20:51:18.799Z,99637.57
2018-12-15T20:53:45.029Z,99635.41
2018-12-15T20:56:11.255Z,99636.01
2018-12-15T20:58:37.455Z,99638.61
2018-12-15T21:01:03.714Z,99634.64
2018-12-15T21:03:29.938Z,99633.55
2018-12-15T21:06:03.397Z,99634.95
2018-12-15T21:08:29.610Z,99626.46
2018-12-15T21:10:55.745Z,99632.28
2018-12-15T21:13:21.910Z,99631.00
2018-12-15T21:15:50.124Z,99631.11
2018-12-15T21:18:16.317Z,99624.52
2018-12-15T21:20:42.545Z,99615.19
2018-12-15T21:23:08.774Z,99612.88
2018-12-15T21:25:34.900Z,99618.48
2018-12-15T21:28:01.228Z,99616.66
2018-12-15T21:30:27.661Z,99615.20
2018-12-15T21:32:53.889Z,99609.66
2018-12-15T21:35:20.733Z,99598.30
2018-12-15T21:37:47.368Z,99597.71
2018-12-15T21:40:14.008Z,99605.33
2018-12-15T21:42:40.848Z,99593.33
2018-12-15T21:45:07.484Z,99589.72
2018-12-15T21:47:34.124Z,99590.69
2018-12-15T21:50:00.554Z,99587.70
2018-12-15T21:52:26.961Z,99590.24
2018-12-15T21:54:53.625Z,99589.57
2018-12-15T21:57:19.813Z,99590.23
2018-12-15T21:59:46.081Z,99590.38
2018-12-15T22:02:12.309Z,99583.55
2018-12-15T22:04:38.711Z,99580.55
2018-12-15T22:07:04.853Z,99581.86
2018-12-15T22:09:30.996Z,99574.70
2018-12-15T22:11:57.629Z,99567.14
2018-12-15T22:14:24.183Z,99554.92
2018-12-15T22:16:52.045Z,99567.67
2018-12-15T22:19:20.032Z,99568.16
2018-12-15T22:21:46.432Z,99560.63
2018-12-15T22:24:12.568Z,99553.93
2018-12-15T22:26:38.859Z,99563.80
2018-12-15T22:29:05.006Z,99568.16
2018-12-15T22:31:31.343Z,99554.75
2018-12-15T22:33:57.506Z,99553.42
2018-12-15T22:36:25.195Z,99551.74
2018-12-15T22:38:53.097Z,99559.25
2018-12-15T22:41:19.735Z,99549.70
2018-12-15T22:43:46.579Z,99552.07
2018-12-15T22:46:12.749Z,99544.55
2018-12-15T22:48:38.921Z,99539.50
2018-12-15T22:51:05.231Z,99537.52
2018-12-15T22:53:31.489Z,99541.36
2018-12-15T22:55:57.687Z,99541.53
2018-12-15T22:58:23.943Z,99537.19
2018-12-15T23:00:56.429Z,99530.67
2018-12-15T23:03:23.159Z,99526.82
2018-12-15T23:05:49.356Z,99526.19
2018-12-15T23:08:15.582Z,99533.36
2018-12-15T23:10:41.744Z,99527.67
2018-12-15T23:13:15.032Z,99527.48
2018-12-15T23:15:41.182Z,99523.09
2018-12-15T23:18:07.488Z,99530.61
2018-12-15T23:20:33.925Z,99515.27
2018-12-15T23:23:00.148Z,99522.14
2018-12-15T23:25:26.328Z,99530.01
2018-12-15T23:27:52.476Z,99525.16
2018-12-15T23:30:18.742Z,99533.38
2018-12-15T23:32:45.057Z,99531.69
2018-12-15T23:35:11.492Z,99535.88
2018-12-15T23:37:37.719Z,99531.02
2018-12-15T23:40:05.356Z,99534.86
2018-12-15T23:42:31.608Z,99539.91
2018-12-15T23:44:58.013Z,99538.19
2018-12-15T23:47:24.269Z,99539.97
2018-12-15T23:49:50.404Z,99538.81
2018-12-15T23:52:23.110Z,99533.33
2018-12-15T23:54:44.751Z,99532.80
2018-12-15T23:57:10.898Z,99525.52
2018-12-15T23:59:37.250Z,99533.69
